Time,TemperatureF,DewpointF,PressureIn,WindDirection,WindDirectionDegrees,WindSpeedMPH,WindSpeedGustMPH,Humidity,HourlyPrecipIn,Conditions,Clouds,dailyrainin,SoftwareType,DateUTC
2013-04-13 00:03:00,57.0,22.0,29.74,WNW,288,3.0,-999.0,26,-99.99,,,-99.99,,2013-04-13 07:03:00,
2013-04-13 00:12:00,57.0,22.0,29.74,WNW,288,3.0,-999.0,26,-99.99,,,-99.99,,2013-04-13 07:12:00,
2013-04-13 00:22:00,56.0,22.0,29.74,WNW,293,3.0,-999.0,26,-99.99,,,-99.99,,2013-04-13 07:22:00,
2013-04-13 00:33:00,56.0,23.0,29.73,WNW,291,4.0,-999.0,27,-99.99,,,-99.99,,2013-04-13 07:33:00,
2013-04-13 00:43:00,56.0,23.0,29.73,WNW,291,4.0,-999.0,27,-99.99,,,-99.99,,2013-04-13 07:43:00,
2013-04-13 00:53:00,55.0,23.0,29.73,WNW,286,4.0,-999.0,28,-99.99,,,-99.99,,2013-04-13 07:53:00,
2013-04-13 01:03:00,55.0,23.0,29.73,NW,309,4.0,-999.0,28,-99.99,,,-99.99,,2013-04-13 08:03:00,
2013-04-13 01:12:00,55.0,23.0,29.73,NW,309,4.0,-999.0,28,-99.99,,,-99.99,,2013-04-13 08:12:00,
2013-04-13 01:33:00,55.0,23.0,29.72,WNW,298,5.0,-999.0,28,-99.99,,,-99.99,,2013-04-13 08:33:00,
2013-04-13 01:43:00,55.0,23.0,29.72,WNW,298,5.0,-999.0,28,-99.99,,,-99.99,,2013-04-13 08:43:00,
2013-04-13 01:53:00,55.0,23.0,29.72,West,277,4.0,-999.0,29,-99.99,,,-99.99,,2013-04-13 08:53:00,
2013-04-13 02:03:00,55.0,23.0,29.72,West,271,5.0,-999.0,29,-99.99,,,-99.99,,2013-04-13 09:03:00,
2013-04-13 02:22:00,55.0,23.0,29.72,NW,306,5.0,-999.0,29,-99.99,,,-99.99,,2013-04-13 09:22:00,
2013-04-13 02:34:00,54.0,23.0,29.71,WNW,293,4.0,-999.0,30,-99.99,,,-99.99,,2013-04-13 09:34:00,
2013-04-13 02:44:00,54.0,23.0,29.71,WNW,293,4.0,-999.0,30,-99.99,,,-99.99,,2013-04-13 09:44:00,
2013-04-13 02:53:00,54.0,23.0,29.71,WNW,291,6.0,-999.0,30,-99.99,,,-99.99,,2013-04-13 09:53:00,
2013-04-13 03:04:00,54.0,23.0,29.70,West,281,5.0,-999.0,30,-99.99,,,-99.99,,2013-04-13 10:04:00,
2013-04-13 03:13:00,54.0,24.0,29.70,WNW,293,5.0,-999.0,31,-99.99,,,-99.99,,2013-04-13 10:13:00,
2013-04-13 03:23:00,54.0,24.0,29.70,WNW,293,5.0,-999.0,31,-99.99,,,-99.99,,2013-04-13 10:23:00,
2013-04-13 03:35:00,54.0,23.0,29.70,WNW,285,4.0,-999.0,30,-99.99,,,-99.99,,2013-04-13 10:35:00,
2013-04-13 03:44:00,54.0,23.0,29.70,WNW,285,4.0,-999.0,30,-99.99,,,-99.99,,2013-04-13 10:44:00,
2013-04-13 03:53:00,53.0,23.0,29.70,WNW,299,4.0,-999.0,31,-99.99,,,-99.99,,2013-04-13 10:53:00,
2013-04-13 04:22:00,52.0,23.0,29.70,West,268,3.0,-999.0,32,-99.99,,,-99.99,,2013-04-13 11:22:00,
2013-04-13 04:32:00,52.0,23.0,29.70,WNW,296,4.0,-999.0,32,-99.99,,,-99.99,,2013-04-13 11:32:00,
2013-04-13 04:43:00,52.0,23.0,29.70,WNW,296,4.0,-999.0,32,-99.99,,,-99.99,,2013-04-13 11:43:00,
2013-04-13 04:52:00,53.0,23.0,29.70,WNW,302,5.0,-999.0,31,-99.99,,,-99.99,,2013-04-13 11:52:00,
2013-04-13 05:04:00,52.0,23.0,29.70,WNW,289,4.0,-999.0,32,-99.99,,,-99.99,,2013-04-13 12:04:00,
2013-04-13 05:13:00,52.0,23.0,29.70,WNW,289,4.0,-999.0,32,-99.99,,,-99.99,,2013-04-13 12:13:00,
2013-04-13 05:22:00,52.0,23.0,29.70,NW,311,4.0,-999.0,32,-99.99,,,-99.99,,2013-04-13 12:22:00,
2013-04-13 05:34:00,53.0,23.0,29.70,WNW,288,5.0,-999.0,31,-99.99,,,-99.99,,2013-04-13 12:34:00,
2013-04-13 05:44:00,53.0,23.0,29.70,WNW,288,5.0,-999.0,31,-99.99,,,-99.99,,2013-04-13 12:44:00,
2013-04-13 05:52:00,54.0,24.0,29.71,WNW,294,4.0,-999.0,31,-99.99,,,-99.99,,2013-04-13 12:52:00,
2013-04-13 06:04:00,53.0,23.0,29.71,West,280,5.0,-999.0,31,-99.99,,,-99.99,,2013-04-13 13:04:00,
2013-04-13 06:22:00,53.0,23.0,29.71,West,269,5.0,-999.0,31,-99.99,,,-99.99,,2013-04-13 13:22:00,
2013-04-13 06:33:00,54.0,24.0,29.71,WNW,286,5.0,-999.0,31,-99.99,,,-99.99,,2013-04-13 13:33:00,
2013-04-13 06:52:00,56.0,25.0,29.71,WNW,298,4.0,-999.0,30,-99.99,,,-99.99,,2013-04-13 13:52:00,
2013-04-13 07:03:00,57.0,25.0,29.71,WNW,302,2.0,-999.0,29,-99.99,,,-99.99,,2013-04-13 14:03:00,
2013-04-13 07:22:00,59.0,26.0,29.72,WNW,303,2.0,-999.0,28,-99.99,,,-99.99,,2013-04-13 14:22:00,
2013-04-13 07:35:00,61.0,26.0,29.72,WNW,290,1.0,-999.0,26,-99.99,,,-99.99,,2013-04-13 14:35:00,
2013-04-13 07:53:00,65.0,26.0,29.72,SSE,160,0.0,-999.0,23,-99.99,,,-99.99,,2013-04-13 14:53:00,
2013-04-13 08:03:00,67.0,25.0,29.72,WSW,252,0.0,-999.0,20,-99.99,,,-99.99,,2013-04-13 15:03:00,
2013-04-13 08:34:00,69.0,26.0,29.73,WSW,238,0.0,-999.0,20,-99.99,,,-99.99,,2013-04-13 15:34:00,
2013-04-13 08:43:00,69.0,26.0,29.73,WSW,238,0.0,-999.0,20,-99.99,,,-99.99,,2013-04-13 15:43:00,
2013-04-13 08:53:00,69.0,25.0,29.73,SW,215,1.0,-999.0,19,-99.99,,,-99.99,,2013-04-13 15:53:00,
2013-04-13 09:04:00,70.0,25.0,29.73,ESE,121,1.0,-999.0,18,-99.99,,,-99.99,,2013-04-13 16:04:00,
2013-04-13 09:22:00,71.0,25.0,29.73,WSW,254,0.0,-999.0,18,-99.99,,,-99.99,,2013-04-13 16:22:00,
2013-04-13 09:33:00,72.0,25.0,29.73,NNW,344,1.0,-999.0,17,-99.99,,,-99.99,,2013-04-13 16:33:00,
2013-04-13 09:43:00,72.0,25.0,29.73,NNW,344,1.0,-999.0,17,-99.99,,,-99.99,,2013-04-13 16:43:00,
2013-04-13 09:52:00,72.0,25.0,29.73,NE,46,2.0,-999.0,17,-99.99,,,-99.99,,2013-04-13 16:52:00,
2013-04-13 10:04:00,75.0,24.0,29.72,SE,138,0.0,-999.0,15,-99.99,,,-99.99,,2013-04-13 17:04:00,
2013-04-13 10:23:00,76.0,23.0,29.72,SSE,157,1.0,-999.0,14,-99.99,,,-99.99,,2013-04-13 17:23:00,
2013-04-13 10:33:00,75.0,24.0,29.72,WSW,242,1.0,-999.0,15,-99.99,,,-99.99,,2013-04-13 17:33:00,
2013-04-13 10:42:00,75.0,24.0,29.72,WSW,242,1.0,-999.0,15,-99.99,,,-99.99,,2013-04-13 17:42:00,
2013-04-13 11:03:00,72.0,23.0,29.71,North,11,4.0,-999.0,16,-99.99,,,-99.99,,2013-04-13 18:03:00,
2013-04-13 11:13:00,72.0,23.0,29.71,North,11,4.0,-999.0,16,-99.99,,,-99.99,,2013-04-13 18:13:00,
2013-04-13 11:23:00,71.0,23.0,29.70,East,100,4.0,-999.0,16,-99.99,,,-99.99,,2013-04-13 18:23:00,
2013-04-13 11:32:00,74.0,23.0,29.70,East,92,3.0,-999.0,15,-99.99,,,-99.99,,2013-04-13 18:32:00,
2013-04-13 11:42:00,74.0,23.0,29.70,East,92,3.0,-999.0,15,-99.99,,,-99.99,,2013-04-13 18:42:00,
2013-04-13 11:52:00,77.0,24.0,29.70,ESE,104,1.0,-999.0,14,-99.99,,,-99.99,,2013-04-13 18:52:00,
2013-04-13 12:02:00,75.0,23.0,29.69,SSW,210,1.0,-999.0,14,-99.99,,,-99.99,,2013-04-13 19:02:00,
2013-04-13 12:12:00,75.0,23.0,29.69,SSW,210,1.0,-999.0,14,-99.99,,,-99.99,,2013-04-13 19:12:00,
2013-04-13 12:22:00,77.0,24.0,29.69,East,99,2.0,-999.0,14,-99.99,,,-99.99,,2013-04-13 19:22:00,
2013-04-13 12:32:00,78.0,25.0,29.68,SE,142,1.0,-999.0,14,-99.99,,,-99.99,,2013-04-13 19:32:00,
2013-04-13 12:42:00,78.0,25.0,29.68,SE,142,1.0,-999.0,14,-99.99,,,-99.99,,2013-04-13 19:42:00,
2013-04-13 12:52:00,79.0,22.0,29.68,ESE,123,1.0,-999.0,12,-99.99,,,-99.99,,2013-04-13 19:52:00,
2013-04-13 13:01:00,80.0,23.0,29.67,West,277,1.0,-999.0,12,-99.99,,,-99.99,,2013-04-13 20:01:00,
2013-04-13 13:11:00,80.0,23.0,29.67,West,277,1.0,-999.0,12,-99.99,,,-99.99,,2013-04-13 20:11:00,
2013-04-13 13:22:00,78.0,23.0,29.66,SW,234,2.0,-999.0,13,-99.99,,,-99.99,,2013-04-13 20:22:00,
2013-04-13 13:31:00,76.0,22.0,29.65,SW,230,3.0,-999.0,13,-99.99,,,-99.99,,2013-04-13 20:31:00,
2013-04-13 13:42:00,76.0,22.0,29.65,SW,230,3.0,-999.0,13,-99.99,,,-99.99,,2013-04-13 20:42:00,
2013-04-13 13:52:00,80.0,21.0,29.65,ESE,109,2.0,-999.0,11,-99.99,,,-99.99,,2013-04-13 20:52:00,
2013-04-13 14:01:00,77.0,22.0,29.64,ESE,109,3.0,-999.0,13,-99.99,,,-99.99,,2013-04-13 21:01:00,
2013-04-13 14:12:00,77.0,22.0,29.64,ESE,109,3.0,-999.0,13,-99.99,,,-99.99,,2013-04-13 21:12:00,
2013-04-13 14:21:00,79.0,22.0,29.63,South,187,1.0,-999.0,12,-99.99,,,-99.99,,2013-04-13 21:21:00,
2013-04-13 14:32:00,83.0,21.0,29.62,WSW,245,1.0,-999.0,10,-99.99,,,-99.99,,2013-04-13 21:32:00,
2013-04-13 14:52:00,79.0,22.0,29.62,West,268,5.0,-999.0,12,-99.99,,,-99.99,,2013-04-13 21:52:00,
2013-04-13 15:02:00,78.0,21.0,29.62,West,267,5.0,-999.0,12,-99.99,,,-99.99,,2013-04-13 22:02:00,
2013-04-13 15:12:00,78.0,21.0,29.62,West,267,5.0,-999.0,12,-99.99,,,-99.99,,2013-04-13 22:12:00,
2013-04-13 15:22:00,78.0,21.0,29.61,SE,141,4.0,-999.0,12,-99.99,,,-99.99,,2013-04-13 22:22:00,
2013-04-13 15:32:00,78.0,19.0,29.61,NW,304,4.0,-999.0,11,-99.99,,,-99.99,,2013-04-13 22:32:00,
2013-04-13 15:42:00,78.0,19.0,29.61,NW,304,4.0,-999.0,11,-99.99,,,-99.99,,2013-04-13 22:42:00,
2013-04-13 15:52:00,78.0,19.0,29.61,West,271,4.0,-999.0,11,-99.99,,,-99.99,,2013-04-13 22:52:00,
2013-04-13 16:01:00,77.0,20.0,29.61,West,281,6.0,-999.0,12,-99.99,,,-99.99,,2013-04-13 23:01:00,
2013-04-13 16:12:00,77.0,20.0,29.61,West,281,6.0,-999.0,12,-99.99,,,-99.99,,2013-04-13 23:12:00,
2013-04-13 16:22:00,77.0,18.0,29.60,North,351,4.0,-999.0,11,-99.99,,,-99.99,,2013-04-13 23:22:00,
2013-04-13 16:32:00,77.0,18.0,29.61,WNW,302,2.0,-999.0,11,-99.99,,,-99.99,,2013-04-13 23:32:00,
2013-04-13 16:41:00,77.0,18.0,29.61,WNW,302,2.0,-999.0,11,-99.99,,,-99.99,,2013-04-13 23:41:00,
2013-04-13 16:52:00,76.0,18.0,29.60,NW,311,4.0,-999.0,11,-99.99,,,-99.99,,2013-04-13 23:52:00,
2013-04-13 17:01:00,76.0,20.0,29.60,NW,311,4.0,-999.0,12,-99.99,,,-99.99,,2013-04-14 00:01:00,
2013-04-13 17:11:00,76.0,20.0,29.60,NW,311,4.0,-999.0,12,-99.99,,,-99.99,,2013-04-14 00:11:00,
2013-04-13 17:22:00,76.0,22.0,29.59,WNW,299,3.0,-999.0,13,-99.99,,,-99.99,,2013-04-14 00:22:00,
2013-04-13 17:31:00,74.0,22.0,29.60,WNW,293,7.0,-999.0,14,-99.99,,,-99.99,,2013-04-14 00:31:00,
2013-04-13 17:41:00,74.0,22.0,29.60,WNW,293,7.0,-999.0,14,-99.99,,,-99.99,,2013-04-14 00:41:00,
2013-04-13 17:52:00,74.0,22.0,29.60,NW,307,5.0,-999.0,14,-99.99,,,-99.99,,2013-04-14 00:52:00,
2013-04-13 18:02:00,74.0,22.0,29.60,NW,307,5.0,-999.0,14,-99.99,,,-99.99,,2013-04-14 01:02:00,
2013-04-13 18:11:00,74.0,22.0,29.60,NW,307,5.0,-999.0,14,-99.99,,,-99.99,,2013-04-14 01:11:00,
2013-04-13 18:22:00,73.0,23.0,29.60,NNE,23,3.0,-999.0,15,-99.99,,,-99.99,,2013-04-14 01:22:00,
2013-04-13 18:32:00,71.0,21.0,29.61,NNW,338,7.0,-999.0,15,-99.99,,,-99.99,,2013-04-14 01:32:00,
2013-04-13 18:42:00,71.0,21.0,29.61,NNW,338,7.0,-999.0,15,-99.99,,,-99.99,,2013-04-14 01:42:00,
2013-04-13 18:52:00,69.0,22.0,29.61,West,263,5.0,-999.0,17,-99.99,,,-99.99,,2013-04-14 01:52:00,
2013-04-13 19:01:00,68.0,22.0,29.61,West,274,7.0,-999.0,17,-99.99,,,-99.99,,2013-04-14 02:01:00,
2013-04-13 19:11:00,68.0,22.0,29.61,West,274,7.0,-999.0,17,-99.99,,,-99.99,,2013-04-14 02:11:00,
2013-04-13 19:21:00,67.0,22.0,29.61,West,279,5.0,-999.0,18,-99.99,,,-99.99,,2013-04-14 02:21:00,
2013-04-13 19:32:00,67.0,22.0,29.62,WNW,298,6.0,-999.0,18,-99.99,,,-99.99,,2013-04-14 02:32:00,
2013-04-13 19:42:00,67.0,22.0,29.62,WNW,298,6.0,-999.0,18,-99.99,,,-99.99,,2013-04-14 02:42:00,
2013-04-13 19:53:00,66.0,23.0,29.62,WNW,296,5.0,-999.0,19,-99.99,,,-99.99,,2013-04-14 02:53:00,
2013-04-13 20:02:00,66.0,23.0,29.62,WNW,298,6.0,-999.0,19,-99.99,,,-99.99,,2013-04-14 03:02:00,
2013-04-13 20:12:00,66.0,23.0,29.62,WNW,298,6.0,-999.0,19,-99.99,,,-99.99,,2013-04-14 03:12:00,
2013-04-13 20:21:00,66.0,24.0,29.62,WNW,288,8.0,-999.0,20,-99.99,,,-99.99,,2013-04-14 03:21:00,
2013-04-13 20:32:00,66.0,24.0,29.63,West,277,7.0,-999.0,20,-99.99,,,-99.99,,2013-04-14 03:32:00,
2013-04-13 20:42:00,66.0,24.0,29.63,West,277,7.0,-999.0,20,-99.99,,,-99.99,,2013-04-14 03:42:00,
2013-04-13 20:53:00,65.0,23.0,29.62,WNW,292,8.0,-999.0,20,-99.99,,,-99.99,,2013-04-14 03:53:00,
2013-04-13 21:02:00,65.0,23.0,29.63,NW,313,8.0,-999.0,20,-99.99,,,-99.99,,2013-04-14 04:02:00,
2013-04-13 21:12:00,65.0,23.0,29.63,NW,313,8.0,-999.0,20,-99.99,,,-99.99,,2013-04-14 04:12:00,
2013-04-13 21:22:00,64.0,23.0,29.63,WNW,286,8.0,-999.0,21,-99.99,,,-99.99,,2013-04-14 04:22:00,
2013-04-13 21:32:00,64.0,23.0,29.63,NW,305,8.0,-999.0,21,-99.99,,,-99.99,,2013-04-14 04:32:00,
2013-04-13 21:42:00,64.0,23.0,29.63,NW,305,8.0,-999.0,21,-99.99,,,-99.99,,2013-04-14 04:42:00,
2013-04-13 21:52:00,63.0,22.0,29.64,NW,318,10.0,-999.0,21,-99.99,,,-99.99,,2013-04-14 04:52:00,
2013-04-13 22:01:00,63.0,24.0,29.64,WNW,288,11.0,-999.0,22,-99.99,,,-99.99,,2013-04-14 05:01:00,
2013-04-13 22:11:00,63.0,24.0,29.64,WNW,288,11.0,-999.0,22,-99.99,,,-99.99,,2013-04-14 05:11:00,
2013-04-13 22:22:00,63.0,25.0,29.64,West,267,12.0,-999.0,23,-99.99,,,-99.99,,2013-04-14 05:22:00,
2013-04-13 22:32:00,62.0,25.0,29.64,NNW,335,10.0,-999.0,24,-99.99,,,-99.99,,2013-04-14 05:32:00,
2013-04-13 22:42:00,62.0,25.0,29.64,NNW,335,10.0,-999.0,24,-99.99,,,-99.99,,2013-04-14 05:42:00,
2013-04-13 22:52:00,62.0,26.0,29.63,WNW,294,4.0,-999.0,25,-99.99,,,-99.99,,2013-04-14 05:52:00,
2013-04-13 23:01:00,61.0,25.0,29.64,NNW,327,7.0,-999.0,25,-99.99,,,-99.99,,2013-04-14 06:01:00,
2013-04-13 23:11:00,61.0,25.0,29.64,NNW,327,7.0,-999.0,25,-99.99,,,-99.99,,2013-04-14 06:11:00,
2013-04-13 23:21:00,60.0,27.0,29.64,NNE,32,2.0,-999.0,28,-99.99,,,-99.99,,2013-04-14 06:21:00,
2013-04-13 23:32:00,61.0,27.0,29.64,West,265,6.0,-999.0,27,-99.99,,,-99.99,,2013-04-14 06:32:00,
2013-04-13 23:42:00,61.0,27.0,29.64,West,265,6.0,-999.0,27,-99.99,,,-99.99,,2013-04-14 06:42:00,
2013-04-13 23:52:00,61.0,26.0,29.64,WNW,302,9.0,-999.0,26,-99.99,,,-99.99,,2013-04-14 06:52:00,